createdAt,value
2019-02-08T00:01:26.577Z,82.13
2019-02-08T00:03:56.189Z,82.22
2019-02-08T00:06:25.444Z,82.47
2019-02-08T00:08:55.617Z,82.03
2019-02-08T00:11:25.252Z,82.60
2019-02-08T00:13:54.930Z,83.10
2019-02-08T00:16:24.683Z,83.59
2019-02-08T00:18:53.897Z,83.38
2019-02-08T00:21:23.306Z,84.43
2019-02-08T00:23:52.570Z,83.87
2019-02-08T00:26:22.313Z,84.17
2019-02-08T00:28:52.526Z,84.35
2019-02-08T00:31:21.965Z,84.35
2019-02-08T00:33:51.187Z,84.45
2019-02-08T00:36:20.455Z,84.20
2019-02-08T00:38:49.803Z,84.71
2019-02-08T00:41:19.050Z,85.18
2019-02-08T00:43:48.311Z,85.69
2019-02-08T00:46:17.612Z,85.70
2019-02-08T00:48:47.038Z,85.23
2019-02-08T00:51:16.328Z,85.37
2019-02-08T00:53:45.624Z,85.17
2019-02-08T00:56:15.350Z,85.59
2019-02-08T00:58:44.769Z,85.65
2019-02-08T01:01:14.223Z,85.23
2019-02-08T01:03:43.946Z,85.40
2019-02-08T01:06:14.595Z,85.27
2019-02-08T01:08:44.427Z,86.13
2019-02-08T01:11:13.751Z,86.61
2019-02-08T01:13:45.126Z,87.38
2019-02-08T01:16:14.519Z,87.28
2019-02-08T01:18:44.319Z,87.45
2019-02-08T01:21:13.435Z,87.97
2019-02-08T01:23:43.099Z,87.86
2019-02-08T01:26:15.277Z,89.15
2019-02-08T01:28:44.589Z,88.34
2019-02-08T01:31:13.993Z,88.31
2019-02-08T01:33:43.361Z,87.95
2019-02-08T01:36:12.731Z,87.39
2019-02-08T01:38:42.269Z,86.87
2019-02-08T01:41:11.670Z,87.13
2019-02-08T01:43:41.090Z,86.86
2019-02-08T01:46:10.451Z,86.73
2019-02-08T01:48:39.874Z,86.25
2019-02-08T01:51:09.179Z,85.96
2019-02-08T01:53:38.686Z,85.93
2019-02-08T01:56:08.196Z,86.00
2019-02-08T01:58:37.986Z,85.91
2019-02-08T02:01:07.662Z,85.72
2019-02-08T02:03:36.856Z,85.41
2019-02-08T02:06:06.606Z,85.41
2019-02-08T02:08:35.951Z,85.41
2019-02-08T02:11:06.011Z,85.18
2019-02-08T02:13:35.406Z,85.19
2019-02-08T02:16:05.246Z,85.01
2019-02-08T02:18:34.468Z,85.19
2019-02-08T02:21:03.846Z,85.15
2019-02-08T02:23:33.323Z,84.94
2019-02-08T02:26:02.802Z,84.09
2019-02-08T02:28:33.702Z,84.28
2019-02-08T02:31:03.277Z,84.48
2019-02-08T02:33:32.641Z,84.34
2019-02-08T02:36:02.487Z,84.25
2019-02-08T02:38:31.824Z,84.09
2019-02-08T02:41:01.481Z,84.14
2019-02-08T02:43:32.524Z,83.79
2019-02-08T02:46:01.755Z,83.47
2019-02-08T02:48:30.986Z,82.47
2019-02-08T02:51:00.720Z,82.69
2019-02-08T02:53:30.050Z,82.59
2019-02-08T02:55:59.361Z,82.08
2019-02-08T02:58:28.652Z,81.90
2019-02-08T03:00:57.951Z,82.04
2019-02-08T03:03:27.627Z,82.15
2019-02-08T03:05:56.876Z,82.02
2019-02-08T03:08:26.453Z,82.40
2019-02-08T03:10:56.434Z,82.11
2019-02-08T03:13:25.894Z,82.54
2019-02-08T03:15:55.274Z,82.58
2019-02-08T03:18:24.576Z,82.64
2019-02-08T03:20:54.904Z,82.84
2019-02-08T03:23:24.321Z,82.74
2019-02-08T03:25:54.070Z,82.97
2019-02-08T03:28:24.302Z,83.12
2019-02-08T03:30:56.457Z,83.47
2019-02-08T03:33:26.472Z,83.64
2019-02-08T03:35:55.774Z,83.69
2019-02-08T03:38:26.118Z,83.68
2019-02-08T03:40:55.353Z,83.86
2019-02-08T03:43:24.731Z,84.08
2019-02-08T03:45:54.458Z,83.71
2019-02-08T03:48:23.826Z,84.20
2019-02-08T03:50:52.967Z,84.54
2019-02-08T03:53:22.551Z,84.26
2019-02-08T03:55:58.013Z,84.82
2019-02-08T03:58:23.350Z,84.91
2019-02-08T04:00:57.375Z,84.98
2019-02-08T04:03:26.631Z,85.81
2019-02-08T04:05:55.948Z,85.45
2019-02-08T04:08:25.392Z,85.62
2019-02-08T04:10:54.818Z,85.54
2019-02-08T04:13:24.603Z,85.29
2019-02-08T04:15:54.666Z,85.28
2019-02-08T04:18:24.028Z,85.32
2019-02-08T04:20:53.279Z,85.26
2019-02-08T04:23:22.633Z,84.95
2019-02-08T04:25:51.978Z,85.04
2019-02-08T04:28:21.267Z,85.33
2019-02-08T04:30:50.679Z,85.34
2019-02-08T04:33:20.163Z,85.05
2019-02-08T04:35:49.921Z,84.92
2019-02-08T04:38:19.681Z,84.93
2019-02-08T04:40:48.857Z,85.08
2019-02-08T04:43:18.146Z,85.09
2019-02-08T04:45:47.427Z,85.15
2019-02-08T04:48:16.809Z,84.86
2019-02-08T04:50:46.203Z,85.06
2019-02-08T04:53:15.489Z,85.20
2019-02-08T04:55:44.858Z,85.24
2019-02-08T04:58:14.161Z,85.62
2019-02-08T05:00:44.067Z,85.68
2019-02-08T05:03:13.239Z,86.33
2019-02-08T05:05:43.431Z,86.43
2019-02-08T05:08:13.062Z,86.31
2019-02-08T05:10:42.375Z,86.35
2019-02-08T05:13:12.107Z,86.54
2019-02-08T05:15:41.502Z,86.52
2019-02-08T05:18:10.826Z,86.77
2019-02-08T05:20:40.084Z,87.04
2019-02-08T05:23:09.338Z,87.46
2019-02-08T05:25:38.556Z,87.71
2019-02-08T05:28:07.978Z,88.63
2019-02-08T05:30:37.408Z,88.84
2019-02-08T05:33:06.907Z,89.10
2019-02-08T05:35:36.521Z,89.24
2019-02-08T05:38:06.157Z,89.90
2019-02-08T05:40:35.572Z,89.98
2019-02-08T05:43:05.570Z,90.73
2019-02-08T05:45:34.876Z,90.63
2019-02-08T05:48:04.201Z,90.74
2019-02-08T05:50:33.487Z,91.76
2019-02-08T05:53:02.863Z,92.09
2019-02-08T05:55:32.916Z,92.59
2019-02-08T05:58:02.430Z,92.40
2019-02-08T06:00:43.350Z,92.71
2019-02-08T06:03:12.586Z,92.88
2019-02-08T06:05:42.282Z,93.31
2019-02-08T06:08:11.577Z,93.12
2019-02-08T06:10:40.834Z,93.17
2019-02-08T06:13:10.449Z,94.12
2019-02-08T06:15:40.196Z,93.85
2019-02-08T06:18:11.030Z,94.75
2019-02-08T06:20:41.425Z,95.31
2019-02-08T06:23:11.146Z,95.16
2019-02-08T06:25:40.400Z,95.77
2019-02-08T06:28:09.743Z,96.00
2019-02-08T06:30:40.010Z,95.99
2019-02-08T06:33:09.447Z,96.41
2019-02-08T06:35:38.764Z,96.66
2019-02-08T06:38:08.655Z,96.68
2019-02-08T06:40:41.205Z,97.29
2019-02-08T06:43:10.978Z,97.13
2019-02-08T06:45:40.376Z,97.47
2019-02-08T06:48:11.163Z,97.38
2019-02-08T06:50:41.000Z,97.62
2019-02-08T06:53:10.313Z,97.59
2019-02-08T06:55:39.632Z,97.46
2019-02-08T06:58:40.304Z,97.22
2019-02-08T07:01:31.484Z,96.94
2019-02-08T07:04:18.608Z,97.46
2019-02-08T07:06:57.189Z,97.52
2019-02-08T07:09:44.741Z,97.69
2019-02-08T07:12:30.766Z,97.75
2019-02-08T07:15:15.013Z,97.90
2019-02-08T07:17:55.404Z,97.93
2019-02-08T07:21:04.983Z,98.02
2019-02-08T07:23:47.549Z,98.46
2019-02-08T07:26:34.914Z,98.38
2019-02-08T07:29:26.815Z,98.84
2019-02-08T07:32:23.112Z,98.80
2019-02-08T07:35:18.152Z,98.45
2019-02-08T07:38:21.463Z,98.44
2019-02-08T07:41:24.115Z,98.86
2019-02-08T07:44:15.495Z,98.77
2019-02-08T07:47:23.345Z,98.84
2019-02-08T07:50:35.081Z,98.72
2019-02-08T07:53:19.059Z,99.23
2019-02-08T07:55:55.257Z,99.43
2019-02-08T07:58:32.176Z,99.55
2019-02-08T08:01:23.819Z,99.43
2019-02-08T08:04:05.309Z,99.40
2019-02-08T08:06:48.030Z,99.74
2019-02-08T08:09:46.192Z,99.70
2019-02-08T08:12:47.613Z,99.96
2019-02-08T08:15:52.175Z,100.00
2019-02-08T08:18:55.849Z,100.00
2019-02-08T08:21:52.400Z,99.56
2019-02-08T08:24:43.819Z,99.09
2019-02-08T08:27:47.236Z,98.71
2019-02-08T08:31:05.415Z,99.09
2019-02-08T08:34:18.781Z,98.78
2019-02-08T08:41:31.651Z,97.12
2019-02-08T08:44:44.037Z,98.24
2019-02-08T08:47:41.340Z,98.13
2019-02-08T08:50:54.804Z,97.84
2019-02-08T08:54:06.482Z,96.38
2019-02-08T08:57:03.758Z,96.82
2019-02-08T09:00:15.141Z,96.49
2019-02-08T09:03:24.145Z,96.07
2019-02-08T09:06:44.528Z,95.09
2019-02-08T09:10:06.770Z,94.30
2019-02-08T09:13:31.271Z,93.01
2019-02-08T09:16:33.934Z,92.02
2019-02-08T09:19:46.851Z,92.22
2019-02-08T09:22:36.892Z,92.27
2019-02-08T09:25:29.530Z,90.86
2019-02-08T09:28:49.191Z,91.07
2019-02-08T09:32:14.051Z,90.82
2019-02-08T09:35:45.795Z,89.49
2019-02-08T09:38:44.983Z,88.30
2019-02-08T09:41:50.019Z,87.62
2019-02-08T09:44:54.339Z,88.22
2019-02-08T09:48:06.665Z,87.18
2019-02-08T09:51:23.126Z,87.28
2019-02-08T09:54:36.638Z,86.81
2019-02-08T09:57:34.657Z,85.42
2019-02-08T10:00:29.797Z,85.67
2019-02-08T10:03:33.744Z,85.99
2019-02-08T10:06:49.577Z,85.63
2019-02-08T10:10:07.515Z,85.81
2019-02-08T10:13:34.257Z,85.52
2019-02-08T10:16:43.446Z,85.26
2019-02-08T10:19:53.666Z,84.59
2019-02-08T10:23:17.273Z,84.04
2019-02-08T10:26:30.897Z,83.96
2019-02-08T10:33:44.698Z,83.71
2019-02-08T10:37:13.565Z,83.43
2019-02-08T10:40:07.797Z,83.20
2019-02-08T10:43:21.107Z,82.64
2019-02-08T10:46:26.372Z,82.00
2019-02-08T10:49:52.227Z,81.49
2019-02-08T10:52:54.388Z,81.43
2019-02-08T10:56:01.233Z,81.74
2019-02-08T10:59:18.450Z,80.80
2019-02-08T11:02:33.775Z,80.39
2019-02-08T11:05:53.122Z,80.00
2019-02-08T11:09:11.754Z,78.45
2019-02-08T11:12:18.070Z,80.16
2019-02-08T11:15:18.830Z,79.93
2019-02-08T11:18:23.210Z,79.96
2019-02-08T11:20:53.870Z,79.61
2019-02-08T11:23:23.297Z,79.11
2019-02-08T11:25:57.730Z,78.69
2019-02-08T11:28:27.757Z,78.04
2019-02-08T11:30:57.147Z,77.51
2019-02-08T11:33:31.425Z,78.26
2019-02-08T11:36:01.086Z,77.45
2019-02-08T11:38:31.143Z,77.38
2019-02-08T11:41:00.565Z,77.81
2019-02-08T11:43:40.442Z,78.05
2019-02-08T11:46:09.835Z,78.17
2019-02-08T11:48:40.738Z,77.86
2019-02-08T11:51:10.113Z,77.92
2019-02-08T11:53:39.338Z,77.96
2019-02-08T11:56:08.821Z,77.67
2019-02-08T11:58:38.074Z,77.93
2019-02-08T12:01:07.401Z,78.05
2019-02-08T12:03:36.841Z,78.24
2019-02-08T12:06:07.059Z,77.45
2019-02-08T12:08:36.397Z,76.66
2019-02-08T12:11:05.803Z,75.57
2019-02-08T12:13:36.082Z,76.41
2019-02-08T12:16:05.410Z,76.11
2019-02-08T12:18:34.692Z,76.18
2019-02-08T12:21:03.896Z,76.41
2019-02-08T12:23:33.279Z,75.31
2019-02-08T12:26:02.941Z,75.39
2019-02-08T12:28:32.189Z,74.75
2019-02-08T12:31:01.430Z,73.83
2019-02-08T12:33:30.634Z,74.11
2019-02-08T12:35:59.882Z,74.29
2019-02-08T12:38:29.184Z,72.41
2019-02-08T12:40:58.537Z,72.46
2019-02-08T12:43:27.794Z,72.52
2019-02-08T12:45:57.135Z,71.05
2019-02-08T12:48:26.482Z,70.50
2019-02-08T12:50:55.896Z,71.59
2019-02-08T12:53:28.442Z,71.54
2019-02-08T12:55:57.662Z,70.62
2019-02-08T12:58:26.880Z,70.54
2019-02-08T13:00:56.171Z,70.76
2019-02-08T13:03:25.645Z,70.72
2019-02-08T13:05:54.965Z,71.69
2019-02-08T13:08:24.258Z,70.72
2019-02-08T13:10:53.566Z,72.18
2019-02-08T13:13:28.887Z,72.55
2019-02-08T13:15:58.227Z,72.91
2019-02-08T13:18:27.518Z,73.20
2019-02-08T13:20:56.906Z,72.90
2019-02-08T13:23:27.324Z,72.98
2019-02-08T13:25:56.718Z,73.09
2019-02-08T13:28:25.878Z,73.03
2019-02-08T13:30:55.088Z,73.60
2019-02-08T13:33:24.493Z,73.27
2019-02-08T13:35:53.700Z,73.37
2019-02-08T13:38:23.047Z,73.53
2019-02-08T13:40:52.327Z,73.38
2019-02-08T13:43:21.756Z,73.62
2019-02-08T13:45:50.993Z,73.51
2019-02-08T13:48:20.207Z,73.79
2019-02-08T13:50:49.873Z,73.83
2019-02-08T13:53:25.139Z,73.79
2019-02-08T13:55:57.948Z,73.25
2019-02-08T13:58:31.180Z,73.75
2019-02-08T14:01:02.260Z,74.59
2019-02-08T14:03:41.125Z,73.74
2019-02-08T14:06:11.615Z,73.64
2019-02-08T14:08:42.597Z,73.54
2019-02-08T14:11:11.999Z,72.61
2019-02-08T14:13:41.441Z,72.06
2019-02-08T14:16:11.051Z,71.94
2019-02-08T14:18:41.601Z,71.89
2019-02-08T14:21:11.045Z,72.07
2019-02-08T14:23:40.601Z,72.65
2019-02-08T14:26:09.860Z,73.29
2019-02-08T14:28:39.237Z,73.08
2019-02-08T14:31:08.521Z,73.08
2019-02-08T14:33:44.312Z,73.48
2019-02-08T14:36:14.478Z,73.11
2019-02-08T14:38:43.774Z,73.39
2019-02-08T14:41:13.479Z,73.36
2019-02-08T14:43:42.979Z,73.78
2019-02-08T14:46:13.400Z,73.83
2019-02-08T14:48:44.207Z,74.08
2019-02-08T14:51:14.037Z,73.94
2019-02-08T14:53:45.960Z,74.30
2019-02-08T14:56:15.543Z,74.57
2019-02-08T14:58:45.734Z,74.78
2019-02-08T15:01:17.327Z,74.53
2019-02-08T15:03:47.792Z,74.80
2019-02-08T15:06:18.208Z,74.96
2019-02-08T15:08:48.390Z,75.15
2019-02-08T15:11:17.747Z,74.80
2019-02-08T15:13:47.428Z,74.44
2019-02-08T15:16:17.491Z,74.90
2019-02-08T15:18:48.435Z,74.98
2019-02-08T15:21:19.973Z,75.09
2019-02-08T15:23:50.590Z,75.11
2019-02-08T15:26:20.894Z,75.04
2019-02-08T15:28:50.280Z,75.22
2019-02-08T15:31:19.752Z,75.26
2019-02-08T15:33:49.192Z,75.59
2019-02-08T15:36:18.484Z,75.64
2019-02-08T15:38:49.912Z,75.40
2019-02-08T15:41:19.179Z,75.31
2019-02-08T15:43:49.878Z,75.07
2019-02-08T15:46:19.338Z,75.49
2019-02-08T15:48:49.545Z,75.31
2019-02-08T15:51:19.143Z,74.98
2019-02-08T15:53:48.585Z,75.30
2019-02-08T15:56:18.417Z,75.60
2019-02-08T15:58:48.276Z,75.28
2019-02-08T16:01:19.147Z,75.66
2019-02-08T16:03:49.352Z,75.51
2019-02-08T16:06:19.955Z,75.62
2019-02-08T16:08:49.572Z,75.59
2019-02-08T16:11:19.146Z,75.37
2019-02-08T16:13:48.881Z,75.52
2019-02-08T16:16:18.541Z,75.93
2019-02-08T16:18:47.974Z,75.95
2019-02-08T16:21:17.604Z,76.31
2019-02-08T16:23:47.401Z,76.46
2019-02-08T16:26:16.950Z,76.62
2019-02-08T16:33:49.019Z,77.10
2019-02-08T16:36:18.408Z,77.16
2019-02-08T16:38:48.088Z,77.10
2019-02-08T16:41:17.747Z,77.03
2019-02-08T16:43:47.472Z,77.39
2019-02-08T16:46:17.107Z,77.70
2019-02-08T16:48:46.659Z,77.65
2019-02-08T16:51:16.212Z,78.06
2019-02-08T16:53:53.072Z,77.70
2019-02-08T16:56:17.300Z,78.41
2019-02-08T16:58:48.172Z,78.37
2019-02-08T17:01:17.894Z,78.20
2019-02-08T17:03:47.556Z,78.50
2019-02-08T17:06:17.252Z,78.35
2019-02-08T17:08:46.927Z,77.99
2019-02-08T17:11:16.721Z,78.48
2019-02-08T17:13:46.557Z,78.30
2019-02-08T17:16:16.350Z,78.10
2019-02-08T17:18:45.861Z,78.18
2019-02-08T17:21:15.397Z,78.30
2019-02-08T17:23:44.945Z,78.28
2019-02-08T17:26:14.553Z,78.33
2019-02-08T17:28:44.168Z,78.62
2019-02-08T17:31:13.817Z,78.58
2019-02-08T17:33:43.492Z,78.32
2019-02-08T17:36:13.174Z,78.48
2019-02-08T17:38:43.597Z,78.40
2019-02-08T17:41:13.332Z,78.64
2019-02-08T17:43:42.975Z,78.34
2019-02-08T17:46:12.740Z,78.28
2019-02-08T17:48:42.257Z,78.25
2019-02-08T17:51:11.819Z,78.14
2019-02-08T17:53:41.497Z,78.40
2019-02-08T17:56:11.427Z,78.27
2019-02-08T17:58:41.098Z,78.10
2019-02-08T18:01:12.050Z,77.96
2019-02-08T18:03:41.957Z,77.81
2019-02-08T18:06:12.537Z,77.91
2019-02-08T18:08:42.747Z,77.86
2019-02-08T18:11:12.303Z,77.98
2019-02-08T18:13:42.018Z,78.14
2019-02-08T18:16:11.638Z,78.07
2019-02-08T18:18:41.267Z,78.03
2019-02-08T18:21:12.180Z,78.09
2019-02-08T18:23:43.339Z,78.08
2019-02-08T18:26:13.344Z,78.03
2019-02-08T18:28:43.117Z,78.39
2019-02-08T18:31:12.777Z,78.30
2019-02-08T18:33:42.558Z,78.11
2019-02-08T18:36:12.072Z,78.24
2019-02-08T18:38:42.576Z,78.40
2019-02-08T18:41:12.228Z,78.56
2019-02-08T18:43:41.907Z,78.41
2019-02-08T18:46:11.971Z,78.43
2019-02-08T18:48:43.104Z,78.46
2019-02-08T18:51:12.797Z,78.25
2019-02-08T18:53:42.485Z,78.27
2019-02-08T18:56:12.123Z,78.24
2019-02-08T18:58:41.839Z,78.29
2019-02-08T19:01:11.802Z,77.77
2019-02-08T19:03:41.834Z,77.88
2019-02-08T19:06:11.525Z,77.91
2019-02-08T19:08:41.945Z,77.86
2019-02-08T19:11:11.755Z,77.78
2019-02-08T19:13:41.284Z,77.92
2019-02-08T19:16:11.043Z,77.85
2019-02-08T19:18:40.716Z,77.54
2019-02-08T19:21:11.349Z,77.62
2019-02-08T19:23:41.506Z,77.08
2019-02-08T19:26:11.282Z,76.83
2019-02-08T19:28:40.903Z,77.14
2019-02-08T19:31:10.682Z,76.67
2019-02-08T19:33:40.455Z,76.84
2019-02-08T19:36:10.096Z,76.64
2019-02-08T19:38:39.739Z,76.44
2019-02-08T19:41:12.036Z,76.34
2019-02-08T19:43:41.739Z,76.39
2019-02-08T19:46:11.923Z,76.61
2019-02-08T19:48:41.574Z,76.65
2019-02-08T19:51:12.271Z,76.69
2019-02-08T19:53:42.414Z,76.70
2019-02-08T19:56:12.197Z,77.04
2019-02-08T19:58:42.092Z,77.23
2019-02-08T20:01:12.111Z,77.47
2019-02-08T20:03:41.814Z,77.62
2019-02-08T20:06:12.172Z,77.69
2019-02-08T20:08:41.772Z,77.76
2019-02-08T20:11:11.912Z,77.45
2019-02-08T20:13:42.271Z,77.51
2019-02-08T20:16:11.939Z,77.57
2019-02-08T20:18:41.466Z,77.39
2019-02-08T20:21:11.185Z,77.34
2019-02-08T20:23:40.908Z,77.34
2019-02-08T20:26:10.587Z,77.39
2019-02-08T20:28:42.661Z,77.18
2019-02-08T20:31:12.498Z,77.13
2019-02-08T20:33:42.555Z,76.92
2019-02-08T20:36:12.249Z,77.26
2019-02-08T20:38:41.891Z,77.14
2019-02-08T20:41:11.651Z,77.11
2019-02-08T20:43:41.483Z,77.02
2019-02-08T20:46:11.358Z,77.04
2019-02-08T20:48:41.133Z,76.93
2019-02-08T20:51:11.318Z,76.96
2019-02-08T20:53:41.211Z,77.08
2019-02-08T20:56:10.925Z,76.56
2019-02-08T20:58:40.608Z,76.58
2019-02-08T21:01:10.575Z,76.21
2019-02-08T21:03:40.428Z,76.63
2019-02-08T21:06:10.386Z,76.67
2019-02-08T21:08:40.136Z,76.87
2019-02-08T21:11:10.804Z,77.01
2019-02-08T21:13:40.555Z,76.88
2019-02-08T21:16:10.473Z,76.36
2019-02-08T21:18:40.086Z,76.15
2019-02-08T21:21:09.948Z,76.46
2019-02-08T21:23:39.572Z,76.61
2019-02-08T21:26:10.824Z,76.66
2019-02-08T21:28:41.464Z,76.77
2019-02-08T21:31:11.266Z,76.55
2019-02-08T21:33:40.955Z,76.60
2019-02-08T21:36:10.775Z,76.40
2019-02-08T21:38:40.418Z,76.72
2019-02-08T21:41:10.189Z,76.71
2019-02-08T21:43:39.851Z,76.78
2019-02-08T21:46:10.083Z,76.83
2019-02-08T21:48:39.814Z,76.79
2019-02-08T21:51:09.436Z,76.62
2019-02-08T21:53:38.971Z,76.28
2019-02-08T21:56:09.127Z,76.10
2019-02-08T21:58:38.900Z,75.87
2019-02-08T22:01:08.901Z,75.83
2019-02-08T22:03:38.510Z,75.85
2019-02-08T22:06:10.320Z,75.67
2019-02-08T22:08:40.463Z,75.60
2019-02-08T22:11:10.028Z,75.30
2019-02-08T22:13:39.914Z,75.29
2019-02-08T22:16:10.018Z,75.32
2019-02-08T22:18:39.668Z,75.46
2019-02-08T22:21:09.240Z,75.48
2019-02-08T22:23:38.638Z,75.46
2019-02-08T22:26:09.959Z,75.75
2019-02-08T22:28:39.512Z,76.06
2019-02-08T22:31:08.806Z,76.48
2019-02-08T22:33:38.150Z,76.58
2019-02-08T22:36:08.091Z,77.53
2019-02-08T22:38:38.054Z,78.38
2019-02-08T22:41:07.718Z,79.07
2019-02-08T22:43:37.322Z,79.38
2019-02-08T22:49:42.024Z,80.47
2019-02-08T22:52:25.242Z,82.47
2019-02-08T22:55:19.272Z,83.36
2019-02-08T22:58:20.978Z,84.03
2019-02-08T23:01:32.432Z,86.85
2019-02-08T23:04:06.756Z,87.38
2019-02-08T23:06:44.818Z,88.85
2019-02-08T23:09:23.680Z,90.35
2019-02-08T23:11:53.740Z,90.89
2019-02-08T23:14:24.280Z,91.60
2019-02-08T23:16:54.071Z,91.77
2019-02-08T23:19:23.812Z,93.44
2019-02-08T23:21:54.958Z,93.21
2019-02-08T23:24:24.825Z,93.78
2019-02-08T23:26:54.803Z,94.07
2019-02-08T23:29:30.163Z,95.14
2019-02-08T23:31:58.311Z,95.46
2019-02-08T23:34:27.991Z,95.57
2019-02-08T23:36:58.414Z,96.09
2019-02-08T23:39:27.897Z,96.12
2019-02-08T23:41:57.671Z,96.79
2019-02-08T23:44:29.322Z,96.77
2019-02-08T23:46:58.665Z,96.99
2019-02-08T23:49:28.577Z,97.26
2019-02-08T23:51:58.577Z,97.06
2019-02-08T23:54:27.893Z,97.38
2019-02-08T23:56:57.540Z,97.67
2019-02-08T23:59:28.352Z,97.99
